Time;durP1;ratioP1;P1;durP2;ratioP2;P2;SDS_P1;SDS_P2;PMS_P1;PMS_P2;Temp;Humidity;BMP_temperature;BMP_pressure;BME280_temperature;BME280_humidity;BME280_pressure;Samples;Min_cycle;Max_cycle;Signal;HPM_P1;HPM_P2
2022/04/22 00:00:22;;;;;;;11.13;7.57;;;;;;;14.07;48.51;100805.16;5090355;28;20036;-61
2022/04/22 00:02:47;;;;;;;10.70;7.18;;;;;;;14.12;48.41;100807.97;5092495;28;20399;-61
2022/04/22 00:05:13;;;;;;;14.25;7.45;;;;;;;14.17;47.94;100807.97;5092349;28;20085;-61
2022/04/22 00:07:38;;;;;;;8.02;7.22;;;;;;;14.15;47.88;100801.84;5091046;28;20507;-61
2022/04/22 00:10:05;;;;;;;8.82;7.30;;;;;;;14.17;48.31;100800.41;5087232;28;20024;-61
2022/04/22 00:12:30;;;;;;;12.40;7.82;;;;;;;14.13;48.29;100801.25;5091279;28;20038;-59
2022/04/22 00:14:56;;;;;;;8.65;7.75;;;;;;;14.16;48.19;100801.53;5092721;28;20032;-59
2022/04/22 00:17:21;;;;;;;8.63;7.45;;;;;;;14.09;48.71;100798.19;5092597;28;20036;-59
2022/04/22 00:19:46;;;;;;;10.00;7.70;;;;;;;14.07;48.56;100794.00;5093006;28;20047;-60
2022/04/22 00:22:12;;;;;;;9.25;8.30;;;;;;;14.03;48.76;100787.28;5082528;28;20036;-62
2022/04/22 00:24:39;;;;;;;15.90;9.00;;;;;;;14.06;48.85;100795.94;5074293;28;20472;-60
2022/04/22 00:27:04;;;;;;;10.10;7.55;;;;;;;14.04;48.48;100789.81;5092453;28;20016;-60
2022/04/22 00:29:30;;;;;;;12.20;8.25;;;;;;;14.02;48.73;100794.00;5090557;28;20020;-61
2022/04/22 00:31:55;;;;;;;10.43;8.00;;;;;;;13.97;48.75;100798.44;5093005;28;20036;-60
2022/04/22 00:34:20;;;;;;;11.10;8.93;;;;;;;13.91;49.33;100791.22;5091832;28;20032;-62
2022/04/22 00:36:45;;;;;;;9.90;7.70;;;;;;;13.88;49.29;100791.75;5089622;28;20387;-61
2022/04/22 00:39:11;;;;;;;8.80;7.90;;;;;;;13.86;48.98;100776.41;5086629;28;20029;-60
2022/04/22 00:41:36;;;;;;;9.90;8.68;;;;;;;13.84;49.49;100789.81;5090942;28;20042;-60
2022/04/22 00:44:04;;;;;;;10.18;8.23;;;;;;;13.76;49.39;100782.81;5093656;28;20024;-61
2022/04/22 00:46:30;;;;;;;11.45;7.57;;;;;;;13.75;50.04;100781.97;5090704;28;20035;-61
2022/04/22 00:48:55;;;;;;;11.27;8.90;;;;;;;13.70;50.13;100781.94;5092319;28;20024;-60
2022/04/22 00:51:22;;;;;;;11.20;8.27;;;;;;;13.72;49.66;100773.31;5090942;28;20131;-60
2022/04/22 00:53:49;;;;;;;13.10;8.68;;;;;;;13.63;49.97;100773.00;5091613;28;20085;-60
2022/04/22 00:56:14;;;;;;;10.05;8.25;;;;;;;13.62;50.02;100778.88;5090186;28;20038;-60
2022/04/22 00:58:43;;;;;;;10.52;7.80;;;;;;;13.63;50.23;100767.41;5092195;28;20020;-60
2022/04/22 01:01:09;;;;;;;11.63;8.20;;;;;;;13.59;50.40;100771.03;5084156;28;20144;-60
2022/04/22 01:03:34;;;;;;;9.80;8.10;;;;;;;13.51;50.74;100764.88;5090055;28;20060;-61
2022/04/22 01:11:35;;;;;;;9.55;8.20;;;;;;;13.44;51.02;100763.47;5093357;28;20043;-61
2022/04/22 01:14:01;;;;;;;13.32;8.57;;;;;;;13.39;51.20;100760.69;5091358;28;20028;-61
2022/04/22 01:16:27;;;;;;;12.52;8.80;;;;;;;13.25;51.58;100757.56;5090994;28;20036;-60
2022/04/22 01:18:52;;;;;;;9.95;8.88;;;;;;;13.33;51.45;100751.47;5091948;28;20042;-60
2022/04/22 01:21:20;;;;;;;11.05;8.63;;;;;;;13.36;51.06;100752.84;5088534;28;20039;-61
2022/04/22 01:23:46;;;;;;;13.05;8.75;;;;;;;13.33;51.34;100754.25;5091875;28;20016;-60
2022/04/22 01:26:13;;;;;;;11.02;8.60;;;;;;;13.21;51.71;100751.69;5087351;28;20030;-61
2022/04/22 01:28:39;;;;;;;10.77;8.50;;;;;;;13.12;52.57;100750.50;5075269;28;20398;-60
2022/04/22 01:31:05;;;;;;;9.02;8.10;;;;;;;13.17;51.94;100749.72;5090827;28;20107;-60
2022/04/22 01:33:30;;;;;;;11.25;8.77;;;;;;;13.22;51.80;100739.41;5092617;28;20422;-61
2022/04/22 01:35:56;;;;;;;15.13;9.57;;;;;;;13.26;51.95;100739.72;5091208;28;20060;-60
2022/04/22 01:38:21;;;;;;;12.00;9.15;;;;;;;13.23;52.08;100745.84;5090501;28;20464;-61
2022/04/22 01:40:49;;;;;;;10.93;8.75;;;;;;;13.21;51.95;100736.91;5076695;28;20133;-61
2022/04/22 01:43:14;;;;;;;13.60;9.00;;;;;;;13.20;52.12;100740.78;5083739;28;20052;-61
2022/04/22 01:45:40;;;;;;;13.38;9.27;;;;;;;13.20;52.63;100740.78;5092346;28;20104;-61
2022/04/22 01:48:05;;;;;;;10.52;8.98;;;;;;;13.29;52.21;100738.34;5090969;28;20031;-61
2022/04/22 01:50:31;;;;;;;11.68;9.20;;;;;;;13.26;52.52;100745.31;5087484;28;20022;-61
2022/04/22 01:52:56;;;;;;;12.68;9.65;;;;;;;13.30;52.21;100748.38;5092198;28;20162;-61
2022/04/22 01:55:22;;;;;;;13.23;9.48;;;;;;;13.21;52.34;100742.47;5089871;28;20113;-61
2022/04/22 01:57:48;;;;;;;11.02;9.10;;;;;;;13.19;52.47;100737.16;5089326;28;20028;-61
2022/04/22 02:00:13;;;;;;;12.25;9.50;;;;;;;13.15;52.49;100738.00;5084401;28;20047;-61
2022/04/22 02:02:39;;;;;;;12.40;9.90;;;;;;;13.08;52.86;100740.19;5084894;28;20028;-61
2022/04/22 02:05:05;;;;;;;12.75;9.77;;;;;;;13.07;52.88;100744.09;5071835;28;20036;-60
2022/04/22 02:07:31;;;;;;;10.38;9.38;;;;;;;13.05;53.03;100744.38;5085513;28;20115;-60
2022/04/22 02:09:56;;;;;;;16.15;10.15;;;;;;;13.09;53.19;100741.88;5091950;28;20139;-60
2022/04/22 02:12:22;;;;;;;13.85;9.75;;;;;;;13.08;52.73;100743.81;5088159;28;20086;-60
2022/04/22 02:14:47;;;;;;;13.15;10.00;;;;;;;13.11;53.07;100736.84;5085143;28;20028;-60
2022/04/22 02:17:12;;;;;;;12.27;9.65;;;;;;;13.11;52.80;100739.66;5086269;28;20036;-60
2022/04/22 02:19:40;;;;;;;12.75;10.43;;;;;;;13.11;52.87;100742.44;5091796;28;20038;-60
2022/04/22 02:22:06;;;;;;;11.30;9.82;;;;;;;13.12;53.16;100732.94;5088591;28;20082;-61
2022/04/22 02:24:32;;;;;;;12.20;9.55;;;;;;;13.12;52.78;100733.78;5084630;28;20035;-61
2022/04/22 02:29:41;;;;;;;11.43;10.23;;;;;;;13.03;53.49;100741.00;5086430;28;20173;-61
2022/04/22 02:32:07;;;;;;;14.63;11.07;;;;;;;13.07;53.40;100739.34;5086422;28;20126;-61
2022/04/22 02:34:32;;;;;;;13.02;10.45;;;;;;;13.07;53.35;100738.50;5085413;28;20161;-61
2022/04/22 02:36:58;;;;;;;13.23;10.32;;;;;;;13.05;53.57;100741.59;5087229;28;20115;-62
2022/04/22 02:39:23;;;;;;;13.30;10.23;;;;;;;13.02;53.41;100740.16;5083510;28;20031;-61
2022/04/22 02:47:16;;;;;;;14.23;10.10;;;;;;;12.98;53.52;100727.91;5085685;28;20117;-61
2022/04/22 02:49:44;;;;;;;15.27;10.45;;;;;;;12.86;53.79;100724.50;5085222;28;20070;-60
2022/04/22 02:52:14;;;;;;;11.77;10.10;;;;;;;12.88;53.69;100713.91;5082851;28;20127;-60
2022/04/22 02:54:42;;;;;;;16.30;10.57;;;;;;;12.85;54.36;100717.25;5085575;28;20429;-61
2022/04/22 02:57:09;;;;;;;13.43;11.13;;;;;;;12.87;53.70;100726.16;5085482;28;20020;-60
2022/04/22 02:59:37;;;;;;;11.73;10.52;;;;;;;12.86;54.14;100723.66;5084066;28;20609;-60
2022/04/22 03:02:03;;;;;;;13.25;11.30;;;;;;;12.78;54.14;100717.50;5076006;28;20127;-60
2022/04/22 03:04:28;;;;;;;12.93;10.20;;;;;;;12.86;53.84;100715.31;5086267;28;20032;-60
2022/04/22 03:06:55;;;;;;;14.02;10.90;;;;;;;12.88;53.88;100722.28;5086439;28;20097;-60
2022/04/22 03:09:23;;;;;;;14.98;11.00;;;;;;;12.81;54.02;100710.56;5085402;28;20471;-60
2022/04/22 03:11:49;;;;;;;13.57;11.10;;;;;;;12.82;54.34;100706.66;5066801;28;20807;-60
2022/04/22 03:14:14;;;;;;;13.00;11.02;;;;;;;12.85;54.09;100708.91;5082540;28;20039;-60
2022/04/22 03:16:40;;;;;;;16.02;11.18;;;;;;;12.79;54.00;100704.41;5087461;28;20036;-60
2022/04/22 03:19:06;;;;;;;15.57;12.20;;;;;;;12.70;54.42;100703.25;5088513;28;20079;-60
2022/04/22 03:21:32;;;;;;;17.35;11.95;;;;;;;12.70;54.51;100704.09;5087827;28;20123;-61
2022/04/22 03:23:57;;;;;;;14.82;11.50;;;;;;;12.69;54.63;100702.44;5087200;28;20039;-61
2022/04/22 03:26:23;;;;;;;14.63;11.48;;;;;;;12.73;54.41;100699.91;5087309;28;20028;-61
2022/04/22 03:28:49;;;;;;;15.98;12.07;;;;;;;12.68;54.38;100700.72;5087263;28;20057;-61
2022/04/22 03:31:15;;;;;;;14.43;11.20;;;;;;;12.57;54.92;100710.13;5079952;28;20062;-60
2022/04/22 03:33:40;;;;;;;14.23;11.40;;;;;;;12.59;54.75;100710.72;5088455;28;20511;-60
2022/04/22 03:36:06;;;;;;;15.52;12.15;;;;;;;12.61;54.78;100710.44;5089418;28;20443;-61
2022/04/22 03:38:31;;;;;;;18.23;12.65;;;;;;;12.57;54.80;100703.72;5088780;28;20039;-60
2022/04/22 03:40:56;;;;;;;13.70;11.85;;;;;;;12.54;54.97;100699.56;5087557;28;20075;-60
2022/04/22 03:43:24;;;;;;;16.98;12.55;;;;;;;12.50;55.23;100702.03;5090434;28;20044;-61
2022/04/22 03:45:52;;;;;;;15.70;12.77;;;;;;;12.43;55.38;100698.66;5088626;28;20091;-60
2022/04/22 03:48:17;;;;;;;14.75;12.40;;;;;;;12.48;55.58;100695.06;5087233;28;20031;-60
2022/04/22 03:50:43;;;;;;;16.10;12.45;;;;;;;12.49;55.28;100696.72;5086169;28;20414;-60
2022/04/22 03:53:11;;;;;;;15.95;12.63;;;;;;;12.41;55.34;100695.28;5088716;28;20024;-60
2022/04/22 03:55:38;;;;;;;14.40;12.07;;;;;;;12.36;55.75;100695.28;5087675;28;20051;-60
2022/04/22 03:58:13;;;;;;;17.70;12.90;;;;;;;12.43;55.27;100693.09;5090571;28;20067;-61
2022/04/22 04:00:40;;;;;;;16.27;12.15;;;;;;;12.45;55.36;100684.47;5090316;28;20048;-61
2022/04/22 04:03:07;;;;;;;16.45;13.20;;;;;;;12.45;55.59;100678.88;5089655;28;20532;-60
2022/04/22 04:05:33;;;;;;;15.57;12.82;;;;;;;12.48;55.54;100681.13;5082176;28;20016;-61
2022/04/22 04:07:58;;;;;;;16.08;13.18;;;;;;;12.46;54.90;100670.28;5091256;28;20024;-61
2022/04/22 04:16:03;;;;;;;17.83;13.85;;;;;;;12.43;55.43;100683.91;5077520;28;20070;-61
2022/04/22 04:18:30;;;;;;;14.98;12.90;;;;;;;12.41;55.71;100688.88;5083955;28;20472;-61
2022/04/22 04:23:42;;;;;;;15.43;12.95;;;;;;;12.41;55.55;100684.16;5073371;28;20093;-61
2022/04/22 04:26:07;;;;;;;17.25;14.25;;;;;;;12.39;55.95;100689.16;5081673;28;20032;-60
2022/04/22 04:28:34;;;;;;;17.65;13.10;;;;;;;12.36;55.81;100677.72;5088220;28;20043;-60
2022/04/22 04:31:00;;;;;;;17.58;14.20;;;;;;;12.35;55.63;100673.28;5088616;28;20546;-61
2022/04/22 04:33:25;;;;;;;19.23;13.75;;;;;;;12.23;56.14;100668.75;5092737;28;20115;-60
2022/04/22 04:35:51;;;;;;;18.10;14.55;;;;;;;12.29;55.99;100673.22;5084249;28;20437;-60
2022/04/22 04:38:17;;;;;;;20.02;14.07;;;;;;;12.31;56.21;100672.97;5085859;28;20063;-60
2022/04/22 04:40:42;;;;;;;17.58;14.02;;;;;;;12.28;56.18;100677.13;5090469;28;20119;-61
2022/04/22 04:43:08;;;;;;;17.17;14.25;;;;;;;12.25;56.33;100679.59;5091505;28;20036;-60
2022/04/22 04:45:34;;;;;;;17.83;14.63;;;;;;;12.22;56.61;100674.56;5093006;28;20031;-60
2022/04/22 04:48:00;;;;;;;18.48;14.55;;;;;;;12.20;56.21;100683.19;5090515;28;20020;-60
2022/04/22 04:50:25;;;;;;;20.65;14.27;;;;;;;12.14;56.76;100683.44;5092030;28;20024;-60
2022/04/22 04:52:50;;;;;;;18.02;14.32;;;;;;;12.18;56.73;100677.09;5090830;28;20028;-60
2022/04/22 04:55:16;;;;;;;19.98;14.48;;;;;;;12.24;56.71;100677.94;5091850;28;20549;-60
2022/04/22 04:57:45;;;;;;;17.02;14.52;;;;;;;12.16;56.78;100676.50;5093295;28;20429;-60
2022/04/22 05:00:11;;;;;;;20.30;15.05;;;;;;;12.16;57.07;100664.53;5087062;28;20040;-61
2022/04/22 05:02:37;;;;;;;17.42;14.82;;;;;;;12.11;57.19;100675.63;5089647;28;20156;-60
2022/04/22 05:05:05;;;;;;;22.38;15.15;;;;;;;12.14;57.36;100675.06;5093013;28;20077;-61
2022/04/22 05:07:33;;;;;;;22.10;14.98;;;;;;;12.08;57.36;100676.16;5089610;28;20537;-61
2022/04/22 05:09:59;;;;;;;19.40;15.55;;;;;;;12.07;57.57;100674.50;5091650;28;20036;-61
2022/04/22 05:12:24;;;;;;;19.35;14.93;;;;;;;12.10;57.64;100677.56;5090632;28;20046;-61
2022/04/22 05:14:49;;;;;;;19.70;15.27;;;;;;;12.04;57.79;100684.22;5091491;28;20032;-60
2022/04/22 05:17:15;;;;;;;17.90;14.32;;;;;;;11.99;57.90;100679.44;5087063;28;20379;-60
2022/04/22 05:19:40;;;;;;;18.75;15.07;;;;;;;12.03;57.79;100675.03;5090418;28;20028;-60
2022/04/22 05:22:06;;;;;;;18.50;14.40;;;;;;;12.02;57.86;100687.28;5089878;28;20055;-60
2022/04/22 05:24:31;;;;;;;21.35;15.23;;;;;;;12.00;58.20;100683.06;5091789;28;20020;-60
2022/04/22 05:26:57;;;;;;;20.77;16.17;;;;;;;12.00;58.11;100683.06;5091038;28;20493;-60
2022/04/22 05:34:50;;;;;;;22.13;16.23;;;;;;;11.85;59.11;100686.56;5076328;28;20097;-61
2022/04/22 05:37:15;;;;;;;17.92;15.48;;;;;;;11.87;59.02;100684.38;5093054;28;20028;-60
2022/04/22 05:39:47;;;;;;;18.67;16.08;;;;;;;11.80;59.39;100678.16;5088419;28;20035;-60
2022/04/22 05:42:12;;;;;;;21.63;16.38;;;;;;;11.84;60.00;100682.09;5088636;28;20024;-60
2022/04/22 05:44:38;;;;;;;19.95;16.45;;;;;;;11.84;59.88;100687.66;5085691;28;20396;-60
2022/04/22 05:47:03;;;;;;;20.85;16.83;;;;;;;11.80;60.34;100683.72;5089881;28;20035;-60
2022/04/22 05:49:29;;;;;;;21.80;17.15;;;;;;;11.87;59.83;100684.38;5087076;28;20040;-60
2022/04/22 05:51:54;;;;;;;20.42;17.38;;;;;;;11.95;59.88;100692.22;5092575;28;20123;-60
2022/04/22 05:54:19;;;;;;;21.85;17.10;;;;;;;11.92;60.03;100689.13;5083466;28;20024;-60
2022/04/22 05:56:51;;;;;;;22.30;17.75;;;;;;;11.81;60.66;100693.72;5087078;28;20050;-61
2022/04/22 05:59:16;;;;;;;23.88;18.50;;;;;;;11.82;60.95;100689.84;5090019;28;20490;-61
2022/04/22 06:01:41;;;;;;;24.60;18.63;;;;;;;11.79;61.28;100695.94;5101951;28;20065;-61
2022/04/22 06:04:09;;;;;;;24.98;19.10;;;;;;;11.81;61.49;100693.72;5086127;28;20063;-61
2022/04/22 06:06:34;;;;;;;29.02;18.98;;;;;;;11.71;61.66;100690.84;5087335;28;20055;-61
2022/04/22 06:11:44;;;;;;;26.08;19.88;;;;;;;11.66;62.47;100688.03;5084325;28;20038;-61
2022/04/22 06:14:15;;;;;;;25.25;18.92;;;;;;;11.73;62.11;100685.88;5094257;28;20047;-61
2022/04/22 06:16:41;;;;;;;24.20;18.75;;;;;;;11.85;61.83;100686.56;5097690;28;20115;-61
2022/04/22 06:19:06;;;;;;;27.20;19.25;;;;;;;11.90;61.90;100689.38;5079914;28;20114;-61
2022/04/22 06:21:31;;;;;;;23.50;20.05;;;;;;;11.83;62.09;100687.88;5084969;28;20056;-62
2022/04/22 06:23:57;;;;;;;23.98;19.40;;;;;;;11.82;62.50;100681.50;5078255;28;20043;-62
2022/04/22 06:26:22;;;;;;;22.63;19.80;;;;;;;11.83;62.65;100686.00;5086119;28;20032;-61
2022/04/22 06:28:47;;;;;;;28.23;19.23;;;;;;;11.93;62.21;100688.84;5085078;28;20032;-61
2022/04/22 06:31:13;;;;;;;27.88;21.05;;;;;;;12.02;62.03;100687.28;5086741;28;20059;-61
2022/04/22 06:33:41;;;;;;;23.77;20.05;;;;;;;12.08;62.16;100693.69;5085962;28;20040;-61
2022/04/22 06:36:12;;;;;;;27.73;20.48;;;;;;;12.17;62.04;100688.47;5085839;28;20060;-61
2022/04/22 06:38:44;;;;;;;23.17;20.20;;;;;;;12.24;61.75;100689.06;5076426;28;20037;-61
2022/04/22 06:46:55;;;;;;;27.63;21.02;;;;;;;12.24;61.59;100695.47;5035840;28;20048;-61
2022/04/22 06:49:20;;;;;;;17.92;15.80;;;;;;;12.43;61.35;100684.75;5068605;28;20048;-61
2022/04/22 06:51:46;;;;;;;26.00;21.17;;;;;;;12.52;61.51;100687.84;5085621;28;20498;-60
2022/04/22 06:54:12;;;;;;;24.50;20.63;;;;;;;12.57;61.34;100684.25;5089879;28;20595;-61
2022/04/22 06:56:40;;;;;;;25.60;21.00;;;;;;;12.64;61.02;100687.63;5087878;28;20173;-61
2022/04/22 06:59:05;;;;;;;26.60;21.50;;;;;;;12.73;60.76;100688.78;5087137;28;20104;-61
2022/04/22 07:01:31;;;;;;;22.95;19.27;;;;;;;12.78;60.66;100694.38;5083845;28;20040;-61
2022/04/22 07:04:00;;;;;;;23.13;19.55;;;;;;;12.80;60.05;100686.59;5085278;28;20491;-61
2022/04/22 07:06:26;;;;;;;25.98;20.60;;;;;;;12.81;60.39;100677.13;5083791;28;20426;-60
2022/04/22 07:08:52;;;;;;;26.38;20.48;;;;;;;12.89;60.58;100686.88;5083858;28;20044;-61
2022/04/22 07:11:26;;;;;;;24.48;20.33;;;;;;;12.92;59.73;100689.97;5085470;28;20397;-60
2022/04/22 07:13:52;;;;;;;29.52;20.48;;;;;;;12.99;60.24;100685.00;5096212;28;20059;-60
2022/04/22 07:16:20;;;;;;;23.23;20.50;;;;;;;12.97;59.81;100681.66;5104884;28;20566;-61
2022/04/22 07:18:45;;;;;;;23.15;18.85;;;;;;;12.93;59.80;100680.53;5104282;28;20534;-60
2022/04/22 07:21:14;;;;;;;25.15;20.35;;;;;;;12.89;60.13;100678.53;5091564;28;20202;-60
2022/04/22 07:23:40;;;;;;;25.42;21.08;;;;;;;12.93;60.02;100672.16;5105624;28;20035;-61
2022/04/22 07:26:09;;;;;;;23.42;20.27;;;;;;;12.97;60.43;100676.09;5090448;28;20024;-61
2022/04/22 07:28:34;;;;;;;25.65;18.90;;;;;;;13.08;59.35;100659.38;5080896;28;20045;-61
2022/04/22 07:31:03;;;;;;;25.98;20.60;;;;;;;13.16;59.29;100672.78;5101855;28;20024;-60
2022/04/22 07:33:29;;;;;;;26.10;20.33;;;;;;;13.22;59.84;100666.94;5094629;28;20031;-60
2022/04/22 07:35:54;;;;;;;28.70;20.75;;;;;;;13.33;59.35;100662.28;5091710;28;20036;-60
2022/04/22 07:38:21;;;;;;;22.73;19.63;;;;;;;13.37;59.09;100668.13;5105161;28;20024;-60
2022/04/22 07:40:49;;;;;;;21.20;18.90;;;;;;;13.35;59.00;100662.81;5097805;27;20395;-61
2022/04/22 07:48:52;;;;;;;24.75;19.70;;;;;;;13.17;58.85;100664.16;5096396;28;20123;-61
2022/04/22 07:51:18;;;;;;;24.13;18.98;;;;;;;13.18;59.00;100668.59;5102368;28;20114;-61
2022/04/22 07:53:43;;;;;;;22.05;18.90;;;;;;;13.24;59.29;100661.97;5113640;28;20126;-61
2022/04/22 07:56:11;;;;;;;25.05;18.00;;;;;;;13.41;58.77;100658.09;5097522;28;20030;-60
2022/04/22 07:58:36;;;;;;;21.90;18.05;;;;;;;13.52;58.92;100665.38;5094083;28;20016;-60
2022/04/22 08:01:02;;;;;;;21.02;18.02;;;;;;;13.54;58.81;100663.13;5092004;28;20085;-61
2022/04/22 08:03:28;;;;;;;22.58;18.90;;;;;;;13.52;59.42;100654.22;5092084;28;20040;-61
2022/04/22 08:05:53;;;;;;;21.55;18.45;;;;;;;13.53;58.82;100655.88;5093376;28;20073;-62
2022/04/22 08:08:18;;;;;;;21.13;18.67;;;;;;;13.59;58.51;100656.69;5098179;28;20031;-61
2022/04/22 08:10:45;;;;;;;19.10;17.02;;;;;;;13.57;57.96;100657.00;5102501;28;20467;-61
2022/04/22 08:13:10;;;;;;;21.90;18.23;;;;;;;13.44;57.67;100658.38;5094165;28;20032;-61
2022/04/22 08:15:36;;;;;;;18.15;16.05;;;;;;;13.44;57.51;100661.16;5091940;28;20030;-61
2022/04/22 08:18:02;;;;;;;25.42;18.77;;;;;;;13.32;58.51;100655.00;5089124;28;20382;-60
2022/04/22 08:20:30;;;;;;;20.30;17.95;;;;;;;13.22;58.64;100650.22;5092327;28;20057;-60
2022/04/22 08:22:56;;;;;;;20.92;18.27;;;;;;;13.16;58.84;100656.88;5091133;28;20020;-60
2022/04/22 08:25:21;;;;;;;21.38;18.52;;;;;;;13.21;58.88;100644.94;5090438;28;20502;-60
2022/04/22 08:27:47;;;;;;;20.67;18.45;;;;;;;13.17;58.89;100649.38;5092717;28;20114;-60
2022/04/22 08:30:13;;;;;;;18.30;15.60;;;;;;;13.26;58.16;100654.16;5092035;28;20657;-61
2022/04/22 08:32:38;;;;;;;12.23;10.38;;;;;;;13.50;58.92;100657.25;5084784;28;20021;-61
2022/04/22 08:35:04;;;;;;;17.40;14.57;;;;;;;13.55;57.96;100652.81;5083780;28;20028;-61
2022/04/22 08:37:30;;;;;;;18.33;15.38;;;;;;;13.71;57.69;100641.34;5087025;28;20035;-61
2022/04/22 08:39:57;;;;;;;18.60;15.98;;;;;;;13.79;57.16;100630.75;5075138;28;20119;-62
2022/04/22 08:42:26;;;;;;;17.58;13.23;;;;;;;13.95;57.05;100621.25;5091383;28;20027;-59
2022/04/22 08:44:52;;;;;;;17.55;14.02;;;;;;;14.19;56.06;100615.94;5086927;28;20024;-61
2022/04/22 08:50:06;;;;;;;19.17;16.27;;;;;;;14.55;55.71;100627.00;5090831;28;20469;-60
2022/04/22 08:52:34;;;;;;;19.98;17.17;;;;;;;14.55;55.06;100625.06;5091053;28;20024;-61
2022/04/22 08:55:06;;;;;;;20.15;16.50;;;;;;;14.62;54.79;100633.09;5091955;28;20081;-61
2022/04/22 08:57:32;;;;;;;16.73;14.77;;;;;;;14.84;54.98;100636.38;5090700;28;20104;-61
2022/04/22 09:00:00;;;;;;;15.43;13.93;;;;;;;15.07;53.94;100634.84;5090513;28;20044;-60
2022/04/22 09:02:26;;;;;;;16.80;15.00;;;;;;;15.21;53.75;100632.25;5089499;28;20020;-60
2022/04/22 09:04:51;;;;;;;13.02;11.48;;;;;;;15.43;53.05;100626.22;5090605;28;20046;-61
2022/04/22 09:07:19;;;;;;;13.60;12.15;;;;;;;15.63;52.75;100625.22;5090515;28;20028;-61
2022/04/22 09:09:50;;;;;;;14.23;11.50;;;;;;;15.70;52.78;100628.56;5090798;28;20028;-61
2022/04/22 09:12:19;;;;;;;12.75;11.45;;;;;;;15.77;52.05;100619.84;5091569;28;20054;-61
2022/04/22 09:14:45;;;;;;;12.90;11.60;;;;;;;15.75;52.02;100622.91;5089862;28;20078;-61
2022/04/22 09:17:15;;;;;;;12.05;10.77;;;;;;;15.99;51.51;100611.75;5090231;28;20047;-61
2022/04/22 09:19:44;;;;;;;14.50;11.32;;;;;;;16.14;51.02;100607.97;5085478;28;20035;-61
2022/04/22 09:22:10;;;;;;;13.55;11.07;;;;;;;16.16;50.84;100619.72;5092161;28;20085;-62
2022/04/22 09:24:49;;;;;;;15.07;9.75;;;;;;;16.22;50.76;100604.53;5089069;28;20047;-61
2022/04/22 09:27:18;;;;;;;10.80;9.57;;;;;;;16.21;49.79;100597.28;5090040;28;20024;-61
2022/04/22 09:29:54;;;;;;;10.82;9.63;;;;;;;16.32;50.10;100595.19;5090972;28;20032;-60
2022/04/22 09:32:32;;;;;;;15.00;12.88;;;;;;;15.98;50.18;100606.47;5091514;28;20139;-61
2022/04/22 09:35:08;;;;;;;14.77;12.63;;;;;;;15.77;50.41;100592.69;5089619;28;20079;-62
2022/04/22 09:43:39;;;;;;;12.63;9.15;;;;;;;15.99;50.36;100585.75;5091842;28;20058;-62
2022/04/22 09:46:05;;;;;;;10.55;9.45;;;;;;;16.03;50.04;100584.00;5091410;28;20054;-61
2022/04/22 09:48:42;;;;;;;13.00;11.63;;;;;;;15.99;49.97;100580.16;5087917;28;20020;-61
2022/04/22 09:51:20;;;;;;;16.38;14.00;;;;;;;15.57;50.00;100574.09;5084222;28;20028;-60
2022/04/22 09:53:47;;;;;;;14.80;13.00;;;;;;;15.33;50.49;100571.22;5088529;28;20031;-60
2022/04/22 09:56:12;;;;;;;16.48;13.93;;;;;;;15.20;51.15;100564.31;5097405;28;20020;-63
2022/04/22 09:58:37;;;;;;;16.27;14.57;;;;;;;15.03;51.16;100574.22;5087405;28;20028;-60
2022/04/22 10:01:05;;;;;;;14.23;12.73;;;;;;;14.95;50.99;100565.31;5089421;28;20071;-60
2022/04/22 10:03:35;;;;;;;17.23;13.73;;;;;;;14.88;51.80;100564.81;5090070;28;20104;-61
2022/04/22 10:06:01;;;;;;;13.82;11.95;;;;;;;14.86;51.82;100560.66;5089613;28;20043;-61
2022/04/22 10:08:30;;;;;;;15.63;12.73;;;;;;;14.77;51.54;100560.41;5094570;28;20479;-61
2022/04/22 10:11:01;;;;;;;14.82;12.57;;;;;;;14.69;51.45;100569.38;5088006;28;20032;-60
2022/04/22 10:13:48;;;;;;;16.30;12.20;;;;;;;14.66;51.19;100554.06;5089536;28;20418;-61
2022/04/22 10:16:14;;;;;;;15.13;13.05;;;;;;;14.59;51.25;100566.66;5081890;28;20024;-61
2022/04/22 10:18:41;;;;;;;17.63;13.73;;;;;;;14.57;51.74;100555.75;5091940;28;20810;-61
2022/04/22 10:21:07;;;;;;;15.63;13.90;;;;;;;14.57;51.61;100554.94;5095089;28;20434;-61
2022/04/22 10:23:32;;;;;;;15.10;13.35;;;;;;;14.58;52.08;100554.66;5101970;28;20024;-60
2022/04/22 10:25:59;;;;;;;15.07;13.02;;;;;;;14.62;51.80;100552.97;5088254;28;20111;-61
2022/04/22 10:28:29;;;;;;;19.25;14.07;;;;;;;14.54;51.92;100552.69;5089724;28;20047;-61
2022/04/22 10:31:00;;;;;;;18.88;14.30;;;;;;;14.51;51.84;100547.72;5088540;28;20035;-61
2022/04/22 10:33:27;;;;;;;17.13;15.30;;;;;;;14.55;52.67;100544.06;5090843;28;20426;-61
2022/04/22 10:35:59;;;;;;;21.08;15.27;;;;;;;14.63;52.66;100546.25;5089315;28;20372;-62
2022/04/22 10:38:39;;;;;;;16.75;15.02;;;;;;;14.66;52.35;100550.44;5088747;28;20024;-61
2022/04/22 10:41:17;;;;;;;17.55;15.75;;;;;;;14.64;51.79;100542.31;5076575;28;20063;-62
2022/04/22 10:43:43;;;;;;;19.85;16.50;;;;;;;14.59;52.01;100547.13;5093758;28;20059;-62
2022/04/22 10:49:15;;;;;;;12.20;9.80;;;;;;;14.80;53.90;100533.84;5082180;28;20086;-62
2022/04/22 10:52:02;;;;;;;12.15;10.88;;;;;;;14.95;52.15;100528.16;5090762;28;20547;-63
2022/04/22 10:54:49;;;;;;;16.05;13.18;;;;;;;14.90;50.81;100533.81;5083851;28;20130;-62
2022/04/22 10:57:16;;;;;;;16.00;13.63;;;;;;;14.77;50.38;100529.66;5078011;28;20039;-63
2022/04/22 10:59:41;;;;;;;12.30;10.32;;;;;;;15.14;52.89;100534.72;5080059;28;20033;-63
2022/04/22 11:02:27;;;;;;;12.75;11.43;;;;;;;15.34;51.82;100527.31;5073928;28;20206;-63
2022/04/22 11:05:20;;;;;;;16.33;14.43;;;;;;;15.26;50.95;100530.72;5071708;28;20089;-60
2022/04/22 11:07:58;;;;;;;16.25;13.95;;;;;;;15.08;49.95;100530.28;5088598;28;20032;-61
2022/04/22 11:10:24;;;;;;;15.90;13.95;;;;;;;14.97;50.45;100518.38;5103557;28;20032;-61
2022/04/22 11:12:57;;;;;;;16.58;14.57;;;;;;;14.90;50.21;100522.63;5087069;28;20085;-61
2022/04/22 11:15:41;;;;;;;19.05;15.07;;;;;;;14.88;50.49;100519.25;5106833;28;20054;-60
2022/04/22 11:18:08;;;;;;;20.70;14.90;;;;;;;14.79;50.55;100521.84;5106156;28;20157;-60
2022/04/22 11:20:35;;;;;;;20.05;15.55;;;;;;;14.77;51.09;100524.09;5095038;28;20123;-61
2022/04/22 11:23:03;;;;;;;21.13;14.80;;;;;;;14.73;50.97;100518.22;5103551;28;20124;-61
2022/04/22 11:25:29;;;;;;;17.60;15.15;;;;;;;14.69;51.00;100510.72;5090508;28;20106;-61
2022/04/22 11:27:56;;;;;;;17.58;15.23;;;;;;;14.69;51.29;100519.09;5107383;28;20027;-61
2022/04/22 11:30:24;;;;;;;23.38;15.93;;;;;;;14.69;51.17;100513.50;5104237;28;20032;-60
2022/04/22 11:32:52;;;;;;;19.17;14.98;;;;;;;14.63;51.05;100523.06;5091862;28;20031;-61
2022/04/22 11:35:22;;;;;;;16.65;14.90;;;;;;;14.53;51.16;100514.72;5092055;28;20039;-61
2022/04/22 11:38:03;;;;;;;19.52;15.85;;;;;;;14.46;51.21;100506.63;5090402;28;20031;-62
2022/04/22 11:40:35;;;;;;;22.13;15.27;;;;;;;14.42;51.22;100513.91;5088317;28;20028;-60
2022/04/22 11:43:14;;;;;;;18.80;13.98;;;;;;;14.43;51.31;100519.22;5098452;28;20280;-60
2022/04/22 11:45:45;;;;;;;17.27;15.45;;;;;;;14.41;51.64;100510.28;5096575;28;20514;-61
2022/04/22 11:48:18;;;;;;;19.15;14.73;;;;;;;14.44;51.41;100518.09;5094454;28;20076;-62
2022/04/22 11:50:46;;;;;;;18.92;14.18;;;;;;;14.48;51.37;100494.06;5102419;28;20550;-61
2022/04/22 11:53:15;;;;;;;20.83;15.77;;;;;;;14.46;52.03;100512.22;5098410;28;20445;-61
2022/04/22 11:55:44;;;;;;;20.23;15.75;;;;;;;14.44;52.46;100504.13;5104865;28;20040;-61
2022/04/22 11:58:11;;;;;;;19.85;16.08;;;;;;;14.49;52.28;100504.13;5102651;27;20092;-61
2022/04/22 12:06:13;;;;;;;21.13;15.45;;;;;;;14.72;52.24;100494.22;5099581;28;20076;-61
2022/04/22 12:09:01;;;;;;;18.63;16.48;;;;;;;14.78;52.08;100492.25;5087980;28;20024;-61
2022/04/22 12:11:27;;;;;;;19.92;16.05;;;;;;;14.80;51.81;100489.97;5085784;28;20031;-61